Time;durP1;ratioP1;P1;durP2;ratioP2;P2;SDS_P1;SDS_P2;PMS_P1;PMS_P2;Temp;Humidity;BMP_temperature;BMP_pressure;BME280_temperature;BME280_humidity;BME280_pressure;Samples;Min_cycle;Max_cycle;Signal;HPM_P1;HPM_P2
2023/03/02 00:00:38;;;;;;;18.00;11.10;;;3.00;99.90;;;;;;5134836;27;20597;-75
2023/03/02 00:03:05;;;;;;;17.80;11.30;;;3.00;99.90;;;;;;5134608;27;20264;-75
2023/03/02 00:05:33;;;;;;;22.73;10.30;;;2.90;99.90;;;;;;5134314;27;20204;-74
2023/03/02 00:07:59;;;;;;;16.67;10.40;;;3.00;99.90;;;;;;5134065;27;20588;-74
2023/03/02 00:10:25;;;;;;;20.90;10.17;;;2.90;99.90;;;;;;5134662;27;20161;-73
2023/03/02 00:12:51;;;;;;;19.27;11.00;;;3.00;99.90;;;;;;5115780;27;20180;-74
2023/03/02 00:15:16;;;;;;;16.23;10.07;;;2.90;99.90;;;;;;5134463;27;20226;-74
2023/03/02 00:17:42;;;;;;;19.23;11.27;;;3.00;99.90;;;;;;5134199;27;20193;-75
2023/03/02 00:20:11;;;;;;;21.53;10.87;;;2.90;99.90;;;;;;5134272;27;20601;-74
2023/03/02 00:22:41;;;;;;;19.30;11.87;;;2.80;99.90;;;;;;5133820;27;20219;-74
2023/03/02 00:25:09;;;;;;;20.07;11.13;;;2.90;99.90;;;;;;5134097;27;20149;-74
2023/03/02 00:27:35;;;;;;;19.30;11.17;;;2.90;99.90;;;;;;5134058;27;20154;-74
2023/03/02 00:30:01;;;;;;;18.23;11.07;;;2.90;99.90;;;;;;5115830;27;20529;-73
2023/03/02 00:32:26;;;;;;;16.67;10.97;;;2.80;99.90;;;;;;5115255;27;20699;-74
2023/03/02 00:34:52;;;;;;;21.00;11.13;;;2.90;99.90;;;;;;5115698;27;20587;-73
2023/03/02 00:37:18;;;;;;;21.53;11.57;;;2.90;99.90;;;;;;5133738;27;20201;-75
2023/03/02 00:39:43;;;;;;;19.50;10.30;;;2.80;99.90;;;;;;5133969;27;20150;-74
2023/03/02 00:42:09;;;;;;;18.27;11.60;;;2.80;99.90;;;;;;5133827;27;20174;-74
2023/03/02 00:44:35;;;;;;;19.83;11.40;;;2.70;99.90;;;;;;5115161;27;20161;-74
2023/03/02 00:47:01;;;;;;;18.37;10.93;;;2.70;99.90;;;;;;5134207;27;20173;-74
2023/03/02 00:49:27;;;;;;;18.93;10.87;;;2.80;99.90;;;;;;5134403;27;20149;-74
2023/03/02 00:51:53;;;;;;;18.83;10.97;;;2.70;99.90;;;;;;5133972;27;20157;-75
2023/03/02 00:54:18;;;;;;;20.47;11.30;;;2.70;99.90;;;;;;5134578;27;20173;-74
2023/03/02 00:56:44;;;;;;;18.30;10.43;;;2.70;99.90;;;;;;5115548;27;20165;-75
2023/03/02 00:59:27;;;;;;;16.73;9.90;;;2.70;99.90;;;;;;5133859;27;20172;-73
2023/03/02 01:01:58;;;;;;;17.63;10.30;;;2.80;99.90;;;;;;5133723;27;20224;-74
2023/03/02 01:04:29;;;;;;;19.70;11.23;;;2.80;99.90;;;;;;5133477;27;20169;-74
2023/03/02 01:06:56;;;;;;;21.13;10.77;;;2.70;99.90;;;;;;5133497;27;20268;-74
2023/03/02 01:09:22;;;;;;;19.90;10.33;;;2.60;99.90;;;;;;5133635;28;20245;-75
2023/03/02 01:11:48;;;;;;;15.13;9.73;;;2.80;99.90;;;;;;5115391;28;20189;-74
2023/03/02 01:14:14;;;;;;;17.50;9.53;;;2.60;99.90;;;;;;5133329;28;20169;-74
2023/03/02 01:16:39;;;;;;;15.77;9.40;;;2.50;99.90;;;;;;5133672;28;20200;-74
2023/03/02 01:19:07;;;;;;;17.83;9.73;;;2.50;99.90;;;;;;5133479;28;20567;-74
2023/03/02 01:21:33;;;;;;;16.93;9.80;;;2.50;99.90;;;;;;5133417;28;20212;-75
2023/03/02 01:23:59;;;;;;;18.23;10.87;;;2.50;99.90;;;;;;5114792;28;20198;-74
2023/03/02 01:26:25;;;;;;;17.50;10.23;;;2.50;99.90;;;;;;5133107;28;20202;-73
2023/03/02 01:28:54;;;;;;;15.70;10.43;;;2.60;99.90;;;;;;5112818;27;20211;-74
2023/03/02 01:31:22;;;;;;;14.03;9.30;;;2.50;99.90;;;;;;5117427;28;20159;-76
2023/03/02 01:33:47;;;;;;;16.83;9.83;;;2.50;99.90;;;;;;5116894;28;20172;-74
2023/03/02 01:36:13;;;;;;;15.90;9.87;;;2.50;99.90;;;;;;5116859;28;20173;-74
2023/03/02 01:38:39;;;;;;;14.50;9.70;;;2.50;99.90;;;;;;5129052;27;20226;-73
2023/03/02 01:41:04;;;;;;;16.30;9.40;;;2.50;99.90;;;;;;5137239;27;20148;-73
2023/03/02 01:43:30;;;;;;;14.93;8.73;;;2.50;99.90;;;;;;5137748;27;20153;-74
2023/03/02 01:46:00;;;;;;;14.83;9.00;;;2.40;99.90;;;;;;5137012;27;20971;-74
2023/03/02 01:48:40;;;;;;;13.37;8.17;;;2.40;99.90;;;;;;5137421;27;20176;-74
2023/03/02 01:51:07;;;;;;;15.67;8.97;;;2.50;99.90;;;;;;5137276;27;20621;-75
2023/03/02 01:53:35;;;;;;;15.73;9.53;;;2.40;99.90;;;;;;5137480;27;20169;-77
2023/03/02 01:56:02;;;;;;;15.90;9.00;;;2.40;99.90;;;;;;5137172;27;20184;-76
2023/03/02 01:58:33;;;;;;;14.67;9.17;;;2.30;99.90;;;;;;5118255;27;20189;-77
2023/03/02 02:01:01;;;;;;;15.13;9.13;;;2.20;99.90;;;;;;5118707;27;20169;-76
2023/03/02 02:03:29;;;;;;;20.27;9.23;;;2.20;99.90;;;;;;5136897;27;20229;-77
2023/03/02 02:06:07;;;;;;;14.30;9.03;;;2.10;99.90;;;;;;5118199;27;20265;-76
2023/03/02 02:08:32;;;;;;;16.70;9.33;;;2.10;99.90;;;;;;5136855;27;20625;-77
2023/03/02 02:10:59;;;;;;;15.17;9.10;;;2.10;99.90;;;;;;5118545;27;20165;-76
2023/03/02 02:13:25;;;;;;;14.47;7.87;;;2.10;99.90;;;;;;5136854;27;20150;-76
2023/03/02 02:15:50;;;;;;;17.43;9.10;;;2.10;99.90;;;;;;5136991;27;20222;-77
2023/03/02 02:18:16;;;;;;;14.50;8.33;;;2.10;99.90;;;;;;5136680;27;20197;-75
2023/03/02 02:20:47;;;;;;;16.13;9.07;;;2.00;99.90;;;;;;5136491;27;20170;-76
2023/03/02 02:23:29;;;;;;;17.40;9.27;;;1.90;99.90;;;;;;5119018;27;20161;-76
2023/03/02 02:25:54;;;;;;;15.17;8.20;;;1.90;99.90;;;;;;5117535;27;20173;-76
2023/03/02 02:28:21;;;;;;;14.03;8.60;;;2.00;99.90;;;;;;5098713;28;20178;-77
2023/03/02 02:30:51;;;;;;;13.47;8.60;;;1.90;99.90;;;;;;5116121;28;20177;-77
2023/03/02 02:33:22;;;;;;;12.37;7.90;;;2.00;99.90;;;;;;5116859;28;20222;-78
2023/03/02 02:35:50;;;;;;;15.30;8.63;;;2.00;99.90;;;;;;5129135;27;20173;-77
2023/03/02 02:38:19;;;;;;;17.40;8.77;;;2.00;99.90;;;;;;5137428;27;20647;-75
2023/03/02 02:40:54;;;;;;;15.17;9.20;;;1.90;99.90;;;;;;5118505;27;20178;-76
2023/03/02 02:43:22;;;;;;;17.33;9.07;;;1.90;99.90;;;;;;5137196;27;20631;-77
2023/03/02 02:45:52;;;;;;;13.13;8.70;;;1.90;99.90;;;;;;5136349;27;20279;-78
2023/03/02 02:48:21;;;;;;;15.07;8.97;;;1.90;99.90;;;;;;5136455;27;20577;-78
2023/03/02 02:50:48;;;;;;;13.80;8.90;;;1.80;99.90;;;;;;5136033;27;20179;-78
2023/03/02 02:53:20;;;;;;;14.30;8.27;;;1.70;99.90;;;;;;5136591;27;20156;-78
2023/03/02 02:55:49;;;;;;;14.67;8.07;;;1.90;99.90;;;;;;5136063;27;20196;-76
2023/03/02 02:58:24;;;;;;;15.17;8.50;;;2.00;99.90;;;;;;5136311;27;20261;-79
2023/03/02 03:00:50;;;;;;;13.43;8.20;;;1.90;99.90;;;;;;5136145;27;20157;-78
2023/03/02 03:03:29;;;;;;;14.73;8.60;;;1.90;99.90;;;;;;5135947;27;20187;-78
2023/03/02 03:06:00;;;;;;;13.73;8.47;;;1.90;99.90;;;;;;5135506;27;20173;-78
2023/03/02 03:08:44;;;;;;;16.57;9.00;;;1.80;99.90;;;;;;5135988;27;20618;-78
2023/03/02 03:11:13;;;;;;;14.17;8.57;;;1.70;99.90;;;;;;5135671;27;20186;-78
2023/03/02 03:13:41;;;;;;;13.53;8.43;;;1.70;99.90;;;;;;5135805;27;20174;-78
2023/03/02 03:16:12;;;;;;;13.67;8.60;;;1.60;99.90;;;;;;5135216;27;20226;-78
2023/03/02 03:18:38;;;;;;;12.63;7.87;;;1.60;99.90;;;;;;5135581;27;20181;-78
2023/03/02 03:21:06;;;;;;;14.57;8.17;;;1.60;99.90;;;;;;5135392;27;20175;-79
2023/03/02 03:23:36;;;;;;;14.17;7.93;;;1.50;99.90;;;;;;5135714;27;20154;-78
2023/03/02 03:26:03;;;;;;;12.23;7.97;;;1.50;99.90;;;;;;5135373;27;20256;-78
2023/03/02 03:28:31;;;;;;;14.73;8.40;;;1.50;99.90;;;;;;5135742;27;20165;-79
2023/03/02 03:30:56;;;;;;;17.17;8.33;;;1.60;99.90;;;;;;5116898;27;20177;-79
2023/03/02 03:33:22;;;;;;;11.83;7.60;;;1.60;99.90;;;;;;5135151;27;20213;-79
2023/03/02 03:35:48;;;;;;;11.40;7.93;;;1.50;99.90;;;;;;5135194;27;20169;-79
2023/03/02 03:38:15;;;;;;;12.27;7.67;;;1.50;99.90;;;;;;5116640;27;20224;-79
2023/03/02 03:40:40;;;;;;;11.23;7.37;;;1.50;99.90;;;;;;5135026;27;20165;-79
2023/03/02 03:43:06;;;;;;;13.50;7.80;;;1.40;99.90;;;;;;5135414;27;20237;-79
2023/03/02 03:45:31;;;;;;;13.30;8.10;;;1.50;99.90;;;;;;5135056;27;20176;-78
2023/03/02 03:47:57;;;;;;;13.53;8.50;;;1.50;99.90;;;;;;5135530;27;20165;-79
2023/03/02 03:50:24;;;;;;;12.20;7.63;;;1.50;99.90;;;;;;5135347;27;20586;-79
2023/03/02 03:52:50;;;;;;;13.73;8.20;;;1.50;99.90;;;;;;5134688;27;20169;-79
2023/03/02 03:55:15;;;;;;;15.27;8.33;;;1.50;99.90;;;;;;5135477;27;20234;-79
2023/03/02 03:57:41;;;;;;;14.30;8.20;;;1.50;99.90;;;;;;5135641;27;20185;-80
2023/03/02 04:00:13;;;;;;;12.00;7.87;;;1.50;99.90;;;;;;5134809;27;20177;-78
2023/03/02 04:02:39;;;;;;;14.27;7.83;;;1.50;99.90;;;;;;5116637;27;20204;-79
2023/03/02 04:05:05;;;;;;;12.57;7.30;;;1.60;99.90;;;;;;5134404;27;20169;-78
2023/03/02 04:07:32;;;;;;;12.07;8.23;;;1.60;99.90;;;;;;5116254;27;20169;-79
2023/03/02 04:10:02;;;;;;;13.80;8.83;;;1.50;99.90;;;;;;5135011;27;20169;-80
2023/03/02 04:12:33;;;;;;;15.53;8.07;;;1.60;99.90;;;;;;5116068;27;20166;-79
2023/03/02 04:14:59;;;;;;;12.53;7.67;;;1.50;99.90;;;;;;5115333;27;20180;-78
2023/03/02 04:17:24;;;;;;;13.47;7.83;;;1.60;99.90;;;;;;5113696;28;20298;-79
2023/03/02 04:19:50;;;;;;;12.53;7.67;;;1.30;99.90;;;;;;5113553;28;20180;-79
2023/03/02 04:22:16;;;;;;;14.30;7.63;;;1.40;99.90;;;;;;5113641;28;20681;-78
2023/03/02 04:24:43;;;;;;;12.50;7.57;;;1.30;99.90;;;;;;5124431;27;20166;-78
2023/03/02 04:27:09;;;;;;;14.47;8.03;;;1.20;99.90;;;;;;5134503;27;20156;-79
2023/03/02 04:29:37;;;;;;;14.23;7.80;;;1.00;99.90;;;;;;5134083;27;20232;-80
2023/03/02 04:32:03;;;;;;;11.57;7.20;;;1.00;99.90;;;;;;5134286;27;20571;-79
2023/03/02 04:34:29;;;;;;;16.73;8.07;;;1.00;99.90;;;;;;5133744;27;20270;-78
2023/03/02 04:36:54;;;;;;;12.97;7.33;;;1.10;99.90;;;;;;5134061;27;20185;-78
2023/03/02 04:39:21;;;;;;;12.10;7.37;;;1.00;99.90;;;;;;5132383;27;20214;-79
2023/03/02 04:41:47;;;;;;;12.27;7.87;;;1.00;99.90;;;;;;5133767;27;20603;-79
2023/03/02 04:44:15;;;;;;;14.40;7.50;;;1.10;99.90;;;;;;5134078;27;20154;-79
2023/03/02 04:46:41;;;;;;;15.57;7.83;;;1.10;99.90;;;;;;5133936;27;20153;-79
2023/03/02 04:49:07;;;;;;;12.50;7.67;;;1.20;99.90;;;;;;5133370;27;20170;-80
2023/03/02 04:51:39;;;;;;;13.63;7.53;;;1.00;99.90;;;;;;5115616;28;20173;-79
2023/03/02 04:54:13;;;;;;;13.67;8.10;;;0.90;99.90;;;;;;5115478;27;20172;-80
2023/03/02 04:56:38;;;;;;;16.07;8.70;;;0.90;99.90;;;;;;5133524;27;20169;-80
2023/03/02 04:59:04;;;;;;;14.23;8.40;;;1.00;99.90;;;;;;5133640;27;20169;-79
2023/03/02 05:01:31;;;;;;;10.40;7.53;;;1.00;99.90;;;;;;5135300;27;20164;-79
2023/03/02 05:03:56;;;;;;;13.13;7.40;;;1.20;99.90;;;;;;5134183;27;20184;-78
2023/03/02 05:06:25;;;;;;;11.33;7.77;;;1.10;99.90;;;;;;5133549;27;20179;-78
2023/03/02 05:08:52;;;;;;;14.13;7.77;;;1.10;99.90;;;;;;5134073;28;20523;-78
2023/03/02 05:11:24;;;;;;;14.20;8.13;;;1.10;99.90;;;;;;5134378;28;20161;-78
2023/03/02 05:13:52;;;;;;;12.43;7.83;;;1.00;99.90;;;;;;5115946;28;20173;-78
2023/03/02 05:16:19;;;;;;;11.07;7.23;;;1.00;99.90;;;;;;5115874;28;20264;-78
2023/03/02 05:18:45;;;;;;;14.80;7.70;;;1.10;99.90;;;;;;5133617;28;20717;-80
2023/03/02 05:21:13;;;;;;;13.70;7.67;;;1.00;99.90;;;;;;5134227;28;20169;-80
2023/03/02 05:23:39;;;;;;;11.10;7.00;;;1.10;99.90;;;;;;5133920;28;20215;-79
2023/03/02 05:26:05;;;;;;;14.27;7.90;;;1.10;99.90;;;;;;5133683;28;20520;-80
2023/03/02 05:28:32;;;;;;;15.07;8.60;;;1.10;99.90;;;;;;5133534;28;20161;-78
2023/03/02 05:30:58;;;;;;;12.83;8.00;;;1.00;99.90;;;;;;5133135;28;20157;-78
2023/03/02 05:33:23;;;;;;;15.20;7.87;;;1.10;99.90;;;;;;5115137;28;20571;-74
2023/03/02 05:35:49;;;;;;;15.33;7.57;;;1.00;99.90;;;;;;5133217;28;20162;-77
2023/03/02 05:38:15;;;;;;;14.87;7.73;;;1.00;99.90;;;;;;5115010;28;20210;-78
2023/03/02 05:40:41;;;;;;;11.53;7.70;;;1.20;99.90;;;;;;5133241;28;20149;-78
2023/03/02 05:43:07;;;;;;;15.93;7.73;;;1.10;99.90;;;;;;5133608;28;20161;-77
2023/03/02 05:45:36;;;;;;;12.30;7.10;;;1.00;99.90;;;;;;5114787;28;20219;-78
2023/03/02 05:48:03;;;;;;;12.10;8.07;;;1.00;99.90;;;;;;5133840;28;20188;-78
2023/03/02 05:50:31;;;;;;;13.90;7.23;;;0.90;99.90;;;;;;5133528;28;20270;-78
2023/03/02 05:52:59;;;;;;;12.40;7.77;;;1.00;99.90;;;;;;5114845;28;20216;-78
2023/03/02 05:55:25;;;;;;;12.67;8.03;;;0.90;99.90;;;;;;5115203;28;20210;-78
2023/03/02 05:57:51;;;;;;;14.10;8.17;;;0.80;99.90;;;;;;5133512;28;20527;-78
2023/03/02 06:00:18;;;;;;;14.50;7.90;;;0.80;99.90;;;;;;5115078;28;20218;-78
2023/03/02 06:02:44;;;;;;;13.73;8.00;;;0.80;99.90;;;;;;5132891;27;20177;-78
2023/03/02 06:05:12;;;;;;;11.60;7.57;;;0.80;99.90;;;;;;5133353;28;20592;-78
2023/03/02 06:07:38;;;;;;;11.77;7.33;;;0.80;99.90;;;;;;5133389;28;20637;-77
2023/03/02 06:10:05;;;;;;;15.50;7.60;;;0.80;99.90;;;;;;5114997;28;20179;-78
2023/03/02 06:12:32;;;;;;;15.67;8.40;;;0.80;99.90;;;;;;5132721;28;20170;-78
2023/03/02 06:14:58;;;;;;;13.27;8.20;;;0.90;99.90;;;;;;5115814;27;20176;-78
2023/03/02 06:17:24;;;;;;;14.27;7.40;;;0.80;99.90;;;;;;5098363;28;20276;-79
2023/03/02 06:19:50;;;;;;;12.90;7.50;;;0.70;99.90;;;;;;5116400;28;20174;-79
2023/03/02 06:22:16;;;;;;;14.07;7.03;;;0.80;99.90;;;;;;5128059;27;20183;-79
2023/03/02 06:24:42;;;;;;;13.87;7.50;;;0.70;99.90;;;;;;5136506;27;20153;-76
2023/03/02 06:27:08;;;;;;;25.07;7.93;;;0.70;99.90;;;;;;5136032;27;20552;-76
2023/03/02 06:29:33;;;;;;;12.47;7.03;;;0.80;99.90;;;;;;5118298;27;20161;-76
2023/03/02 06:32:00;;;;;;;15.60;7.90;;;0.80;99.90;;;;;;5136063;27;20173;-76
2023/03/02 06:34:28;;;;;;;12.77;7.63;;;0.80;99.90;;;;;;5136348;27;20576;-76
2023/03/02 06:36:54;;;;;;;15.30;8.27;;;0.80;99.90;;;;;;5135756;27;20203;-76
2023/03/02 06:39:20;;;;;;;12.53;7.27;;;0.80;99.90;;;;;;5116634;27;20222;-76
2023/03/02 06:41:47;;;;;;;10.97;7.33;;;0.80;99.90;;;;;;5132811;27;20179;-76
2023/03/02 06:44:27;;;;;;;11.93;7.27;;;0.80;99.90;;;;;;5136148;27;20594;-76
2023/03/02 06:47:17;;;;;;;11.17;7.27;;;0.70;99.90;;;;;;5136557;27;20154;-76
2023/03/02 06:49:49;;;;;;;12.60;7.33;;;0.80;99.90;;;;;;5136751;27;20192;-76
2023/03/02 06:52:28;;;;;;;12.17;7.33;;;0.80;99.90;;;;;;5136728;27;20679;-74
2023/03/02 06:54:55;;;;;;;13.10;7.73;;;0.80;99.90;;;;;;5114181;28;20192;-76
2023/03/02 06:57:40;;;;;;;13.73;7.63;;;0.70;99.90;;;;;;5118692;28;20190;-77
2023/03/02 07:00:16;;;;;;;16.07;7.87;;;0.70;99.90;;;;;;5115024;28;20165;-76
2023/03/02 07:02:43;;;;;;;16.83;7.87;;;0.70;99.90;;;;;;5134555;27;20629;-76
2023/03/02 07:05:17;;;;;;;14.77;7.60;;;0.70;99.90;;;;;;5136223;27;20642;-76
2023/03/02 07:07:43;;;;;;;16.47;7.30;;;0.70;99.90;;;;;;5136322;27;20178;-74
2023/03/02 07:10:17;;;;;;;14.60;7.73;;;0.80;99.90;;;;;;5136444;27;20209;-75
2023/03/02 07:12:43;;;;;;;15.40;7.93;;;0.80;99.90;;;;;;5118502;27;20268;-75
2023/03/02 07:15:13;;;;;;;17.47;8.33;;;0.80;99.90;;;;;;5136170;27;20223;-73
2023/03/02 07:17:39;;;;;;;14.00;7.23;;;0.80;99.90;;;;;;5117326;27;20189;-73
2023/03/02 07:20:06;;;;;;;19.37;8.07;;;0.90;99.90;;;;;;5136682;27;20161;-74
2023/03/02 07:22:32;;;;;;;18.40;8.60;;;0.90;99.90;;;;;;5136246;27;20169;-74
2023/03/02 07:24:58;;;;;;;12.23;7.60;;;0.80;99.90;;;;;;5136054;27;20168;-74
2023/03/02 07:27:26;;;;;;;18.30;7.83;;;0.80;99.90;;;;;;5116565;27;20173;-74
2023/03/02 07:29:55;;;;;;;17.80;7.83;;;0.80;99.90;;;;;;5135845;27;20527;-72
2023/03/02 07:32:21;;;;;;;16.90;9.43;;;0.90;99.90;;;;;;5135831;27;20205;-74
2023/03/02 07:34:46;;;;;;;15.30;8.50;;;1.00;99.90;;;;;;5135781;27;20214;-74
2023/03/02 07:37:12;;;;;;;14.67;7.87;;;1.00;99.90;;;;;;5125064;27;20185;-74
2023/03/02 07:39:40;;;;;;;21.10;8.50;;;1.20;99.90;;;;;;5097267;28;20177;-74
2023/03/02 07:42:10;;;;;;;17.30;8.57;;;1.30;99.90;;;;;;5116135;28;20203;-74
2023/03/02 07:44:37;;;;;;;17.83;8.07;;;1.30;99.90;;;;;;5116071;28;20249;-73
2023/03/02 07:47:04;;;;;;;17.43;9.40;;;1.30;99.90;;;;;;5115869;28;20170;-76
2023/03/02 07:49:40;;;;;;;16.13;8.50;;;1.40;99.90;;;;;;5115803;28;20197;-74
2023/03/02 07:52:06;;;;;;;18.40;8.37;;;1.40;99.90;;;;;;5133198;27;20188;-73
2023/03/02 07:54:37;;;;;;;16.63;8.70;;;1.40;99.90;;;;;;5135978;27;20161;-74
2023/03/02 07:57:03;;;;;;;15.17;9.33;;;1.50;99.90;;;;;;5135184;27;20192;-73
2023/03/02 07:59:30;;;;;;;18.93;9.73;;;1.70;99.90;;;;;;5134738;27;20232;-74
2023/03/02 08:01:57;;;;;;;15.80;10.17;;;1.80;99.90;;;;;;5133860;27;20579;-74
2023/03/02 08:04:23;;;;;;;14.57;8.77;;;1.90;99.90;;;;;;5134513;27;20181;-74
2023/03/02 08:06:49;;;;;;;16.27;9.23;;;1.90;99.90;;;;;;5116129;27;20535;-73
2023/03/02 08:09:15;;;;;;;19.37;9.07;;;2.00;99.90;;;;;;5132901;27;20161;-74
2023/03/02 08:11:43;;;;;;;15.90;9.00;;;2.10;99.90;;;;;;5130563;27;20650;-74
2023/03/02 08:14:09;;;;;;;18.23;9.13;;;2.10;99.90;;;;;;5132160;27;20231;-74
2023/03/02 08:16:35;;;;;;;14.73;8.47;;;2.30;99.90;;;;;;5115503;27;20314;-73
2023/03/02 08:19:04;;;;;;;16.13;8.97;;;2.20;99.90;;;;;;5115589;27;20279;-73
2023/03/02 08:21:32;;;;;;;16.17;9.20;;;2.20;99.90;;;;;;5133383;27;20211;-74
2023/03/02 08:23:59;;;;;;;15.97;8.70;;;2.20;99.90;;;;;;5113221;28;20166;-74
2023/03/02 08:26:25;;;;;;;15.20;9.10;;;2.20;99.90;;;;;;5116825;27;20502;-74
2023/03/02 08:28:51;;;;;;;15.70;9.30;;;2.20;99.90;;;;;;5124990;27;20194;-74
2023/03/02 08:31:19;;;;;;;16.27;8.03;;;2.10;99.90;;;;;;5124098;27;20644;-74
2023/03/02 08:33:45;;;;;;;16.10;9.13;;;2.10;99.90;;;;;;5133544;27;20168;-74
2023/03/02 08:36:16;;;;;;;16.53;9.43;;;2.30;99.90;;;;;;5133982;27;20173;-73
2023/03/02 08:38:41;;;;;;;17.17;9.17;;;2.60;99.90;;;;;;5133962;27;20188;-74
2023/03/02 08:41:11;;;;;;;17.57;8.97;;;2.70;99.90;;;;;;5111493;28;20165;-74
2023/03/02 08:43:37;;;;;;;21.10;9.43;;;2.70;99.90;;;;;;5112849;28;20154;-74
2023/03/02 08:46:04;;;;;;;14.57;8.67;;;2.80;99.90;;;;;;5122596;27;20249;-74
2023/03/02 08:48:29;;;;;;;12.77;8.23;;;2.80;99.90;;;;;;5109845;28;20721;-74
2023/03/02 08:51:04;;;;;;;20.57;9.10;;;3.00;99.90;;;;;;5144462;27;20244;-74
2023/03/02 08:53:35;;;;;;;10.50;6.73;;;3.00;99.90;;;;;;5134227;27;20149;-73
2023/03/02 08:56:21;;;;;;;17.77;9.10;;;3.00;99.90;;;;;;5133807;27;20149;-74
2023/03/02 08:58:49;;;;;;;16.87;8.13;;;2.90;99.90;;;;;;5133925;27;20187;-73
2023/03/02 09:01:28;;;;;;;17.07;9.43;;;3.10;99.90;;;;;;5114937;27;20175;-75
2023/03/02 09:03:54;;;;;;;15.40;9.63;;;3.00;99.90;;;;;;5133934;27;20638;-74
2023/03/02 09:06:20;;;;;;;16.53;8.90;;;3.10;99.90;;;;;;5133387;27;20157;-73
2023/03/02 09:08:49;;;;;;;17.00;8.60;;;3.30;99.90;;;;;;5116164;28;20172;-73
2023/03/02 09:11:16;;;;;;;15.03;8.50;;;3.30;99.90;;;;;;5132916;28;20175;-75
2023/03/02 09:13:44;;;;;;;14.43;8.10;;;3.50;99.90;;;;;;5133668;28;20173;-74
2023/03/02 09:16:10;;;;;;;14.03;9.03;;;3.50;99.90;;;;;;5133419;28;20202;-74
2023/03/02 09:18:38;;;;;;;16.37;8.90;;;3.60;99.90;;;;;;5134410;28;20173;-75
2023/03/02 09:21:06;;;;;;;16.17;9.60;;;3.70;99.90;;;;;;5133315;28;20154;-75
2023/03/02 09:23:34;;;;;;;15.43;9.20;;;3.90;99.90;;;;;;5115701;28;20157;-75
2023/03/02 09:26:02;;;;;;;17.33;10.03;;;4.00;99.90;;;;;;5133199;28;20244;-75
2023/03/02 09:28:30;;;;;;;15.30;9.23;;;4.00;99.90;;;;;;5133956;28;20649;-74
2023/03/02 09:31:01;;;;;;;15.07;9.10;;;3.90;99.90;;;;;;5133452;28;20177;-74
2023/03/02 09:33:30;;;;;;;19.87;10.80;;;4.00;99.90;;;;;;5133633;28;20169;-75
2023/03/02 09:36:06;;;;;;;19.30;10.43;;;4.20;99.90;;;;;;5134194;28;20165;-75
2023/03/02 09:38:32;;;;;;;17.70;10.00;;;4.30;99.90;;;;;;5114788;28;20201;-74
2023/03/02 09:40:57;;;;;;;19.07;10.03;;;4.40;99.90;;;;;;5132875;28;20500;-74
2023/03/02 09:43:54;;;;;;;22.93;10.73;;;4.40;99.90;;;;;;5134156;28;20154;-73
2023/03/02 09:46:19;;;;;;;19.23;10.50;;;4.30;99.90;;;;;;5133686;28;20543;-74
2023/03/02 09:49:16;;;;;;;19.33;10.97;;;4.40;99.90;;;;;;5133137;28;20184;-74
2023/03/02 09:51:45;;;;;;;21.03;11.23;;;4.50;99.90;;;;;;5136412;27;20169;-74
2023/03/02 09:54:22;;;;;;;20.60;10.87;;;4.60;99.90;;;;;;5138159;27;20621;-75
2023/03/02 09:56:57;;;;;;;18.47;10.43;;;4.60;99.90;;;;;;5137868;27;20201;-74
2023/03/02 09:59:30;;;;;;;21.87;10.10;;;4.80;99.90;;;;;;5125814;27;20162;-74
2023/03/02 10:02:15;;;;;;;19.73;10.67;;;4.80;99.90;;;;;;5132490;27;20572;-74
2023/03/02 10:04:52;;;;;;;20.87;10.73;;;4.80;99.90;;;;;;5136959;27;20182;-74
2023/03/02 10:07:34;;;;;;;19.73;11.93;;;4.90;99.90;;;;;;5118999;27;20164;-75
2023/03/02 10:10:21;;;;;;;21.23;10.57;;;4.90;99.90;;;;;;5135759;27;20169;-73
2023/03/02 10:13:00;;;;;;;21.87;10.57;;;4.80;99.90;;;;;;5116606;28;20970;-73
2023/03/02 10:15:39;;;;;;;21.40;11.43;;;4.90;99.90;;;;;;5127543;27;20164;-75
2023/03/02 10:18:28;;;;;;;21.07;11.23;;;4.90;99.90;;;;;;5136851;27;20657;-74
2023/03/02 10:20:57;;;;;;;21.03;11.07;;;4.90;99.90;;;;;;5122414;27;20197;-75
2023/03/02 10:23:37;;;;;;;21.93;11.27;;;4.90;99.90;;;;;;5137273;27;20211;-74
2023/03/02 10:26:22;;;;;;;22.50;13.43;;;5.00;99.90;;;;;;5137192;27;20555;-74
2023/03/02 10:29:04;;;;;;;22.87;12.43;;;5.10;99.90;;;;;;5098092;28;20226;-74
2023/03/02 10:31:32;;;;;;;21.63;13.20;;;5.20;99.90;;;;;;5127225;27;20173;-74
2023/03/02 10:33:59;;;;;;;22.83;12.40;;;5.20;99.90;;;;;;5118706;27;20158;-75
2023/03/02 10:36:27;;;;;;;21.93;12.60;;;5.40;99.90;;;;;;5119766;27;20239;-74
2023/03/02 10:38:55;;;;;;;25.67;13.20;;;5.60;99.90;;;;;;5117918;27;20186;-75
2023/03/02 10:41:33;;;;;;;22.23;11.13;;;5.50;99.90;;;;;;5121513;27;20170;-73
2023/03/02 10:44:39;;;;;;;20.30;11.10;;;5.50;99.90;;;;;;5156383;27;20154;-74
2023/03/02 10:47:07;;;;;;;20.77;11.83;;;5.70;99.90;;;;;;5156976;27;20198;-74
2023/03/02 10:49:38;;;;;;;23.07;12.60;;;5.90;99.90;;;;;;5144476;27;20216;-74
2023/03/02 10:52:12;;;;;;;22.47;12.13;;;5.90;99.90;;;;;;5134023;27;20169;-73
2023/03/02 10:54:38;;;;;;;21.87;12.13;;;5.90;99.90;;;;;;5117396;27;20170;-75
2023/03/02 10:57:27;;;;;;;23.70;11.53;;;6.00;99.90;;;;;;5136156;27;20366;-74
2023/03/02 11:00:03;;;;;;;23.83;11.13;;;6.50;99.90;;;;;;5135160;27;20206;-75
2023/03/02 11:02:33;;;;;;;21.60;11.37;;;6.70;99.90;;;;;;5116131;27;20199;-74
2023/03/02 11:05:25;;;;;;;21.83;11.73;;;6.80;99.90;;;;;;5136020;27;20156;-74
2023/03/02 11:08:06;;;;;;;21.33;12.43;;;6.80;99.90;;;;;;5134976;27;20225;-74
2023/03/02 11:10:35;;;;;;;20.43;11.30;;;6.90;99.90;;;;;;5134995;27;20203;-74
2023/03/02 11:13:14;;;;;;;18.80;11.63;;;7.30;99.90;;;;;;5113551;27;20190;-74
2023/03/02 11:15:49;;;;;;;21.03;10.80;;;7.60;99.90;;;;;;5115372;28;20153;-74
2023/03/02 11:18:30;;;;;;;20.07;11.30;;;8.20;99.90;;;;;;5114918;28;20181;-75
2023/03/02 11:21:04;;;;;;;19.90;11.17;;;8.60;99.10;;;;;;5134037;27;20213;-75
2023/03/02 11:23:50;;;;;;;17.77;11.60;;;8.80;98.70;;;;;;5134596;27;20156;-73
2023/03/02 11:26:24;;;;;;;22.00;11.43;;;8.90;98.10;;;;;;5116068;27;20205;-74
2023/03/02 11:29:24;;;;;;;19.77;12.03;;;9.00;97.50;;;;;;5135684;27;20174;-75
2023/03/02 11:32:07;;;;;;;19.63;12.57;;;9.50;97.30;;;;;;5129425;27;20246;-74
2023/03/02 11:34:50;;;;;;;22.40;12.20;;;10.10;96.10;;;;;;5134282;27;20255;-74
2023/03/02 11:37:41;;;;;;;17.77;11.87;;;10.50;95.30;;;;;;5116837;27;20210;-74
2023/03/02 11:40:21;;;;;;;25.33;13.30;;;10.50;94.50;;;;;;5138885;27;20178;-75
2023/03/02 11:42:48;;;;;;;20.60;12.17;;;10.60;94.70;;;;;;5134849;27;20160;-74
2023/03/02 11:45:26;;;;;;;21.07;11.53;;;10.80;94.00;;;;;;5134153;27;20173;-74
2023/03/02 11:47:58;;;;;;;19.27;12.60;;;10.80;93.60;;;;;;5116019;27;20171;-74
2023/03/02 11:50:25;;;;;;;20.53;12.53;;;10.70;93.80;;;;;;5115125;27;20183;-75
2023/03/02 11:52:58;;;;;;;22.03;12.77;;;10.70;93.90;;;;;;5134801;27;20536;-75
2023/03/02 11:55:26;;;;;;;22.13;13.40;;;10.80;93.90;;;;;;5133465;27;20935;-74
2023/03/02 11:58:00;;;;;;;25.97;12.47;;;11.20;93.50;;;;;;5134860;27;20191;-75
2023/03/02 12:00:41;;;;;;;22.07;11.83;;;11.70;93.10;;;;;;5107993;27;20183;-75
2023/03/02 12:03:16;;;;;;;20.17;11.10;;;12.30;92.10;;;;;;5133347;27;20180;-75
2023/03/02 12:05:59;;;;;;;20.87;12.17;;;11.80;91.90;;;;;;5094857;28;20238;-76
2023/03/02 12:08:39;;;;;;;23.80;12.37;;;11.60;92.40;;;;;;5105718;27;20179;-75
2023/03/02 12:11:32;;;;;;;20.30;11.57;;;11.40;92.50;;;;;;5111841;27;20222;-75
2023/03/02 12:14:03;;;;;;;18.60;11.87;;;11.10;92.80;;;;;;5127291;27;20168;-73
2023/03/02 12:16:40;;;;;;;17.93;11.67;;;11.40;92.70;;;;;;5135007;27;20148;-76
2023/03/02 12:19:15;;;;;;;19.97;11.47;;;11.80;92.30;;;;;;5134826;27;20679;-76
2023/03/02 12:22:01;;;;;;;18.03;11.70;;;11.70;92.00;;;;;;5135221;27;20510;-74
2023/03/02 12:24:32;;;;;;;21.00;11.63;;;11.80;92.10;;;;;;5134879;27;20601;-74
2023/03/02 12:27:11;;;;;;;19.70;11.90;;;12.30;91.70;;;;;;5134757;27;20175;-74
2023/03/02 12:29:47;;;;;;;20.93;11.37;;;12.70;90.90;;;;;;5134367;27;20189;-75
2023/03/02 12:32:27;;;;;;;18.60;11.20;;;12.90;91.10;;;;;;5116213;27;20161;-74
2023/03/02 12:35:08;;;;;;;17.57;11.90;;;13.10;90.90;;;;;;5134103;27;20197;-74
2023/03/02 12:37:55;;;;;;;18.00;11.57;;;13.40;90.30;;;;;;5115624;27;20567;-74
2023/03/02 12:40:43;;;;;;;19.27;11.97;;;13.40;90.30;;;;;;5134155;27;20670;-75
2023/03/02 12:43:24;;;;;;;22.40;12.03;;;13.00;90.10;;;;;;5133827;27;20161;-75
2023/03/02 12:45:56;;;;;;;19.23;11.63;;;13.30;89.80;;;;;;5134465;27;20149;-76
2023/03/02 12:48:27;;;;;;;21.07;12.83;;;14.20;88.90;;;;;;5134110;27;20589;-75
2023/03/02 12:51:01;;;;;;;20.23;12.83;;;14.80;87.30;;;;;;5134131;27;20161;-75
2023/03/02 12:53:28;;;;;;;21.30;12.70;;;14.80;85.50;;;;;;5133994;27;20679;-75
2023/03/02 12:55:53;;;;;;;20.47;12.00;;;14.80;86.00;;;;;;5134575;27;20221;-75
2023/03/02 12:58:27;;;;;;;19.77;11.90;;;15.10;86.00;;;;;;5133596;27;20201;-77